KFXE

Fort Lauderdale Executive Airport

Fort Lauderdale, Florida, USA
KFXE 210310Z 2103/2124 09010KT P6SM SCT250 FM210600 08006KT P6SM SCT250 FM211300 10011KT P6SM SCT030 SCT050 FM211700 09015G25KT P6SM VCSH SCT025 BKN050 BKN250
Issued Valid From Valid To
Apr-21 @ 03:10 UTC
(50 minutes ago)
Apr-21 @ 03:00 UTC
(60 minutes ago)
Apr-22 @ 00:00 UTC
(in 20 hours)
Apr-21 @ 03:00 to Apr-21 @ 06:00
KFXE 210310Z 2103/2124 09010KT P6SM SCT250
Wind Visibility Clouds
90° at 10 knots Greater than 6 miles
  • Scattered at 25,000' AGL
From Apr-21 @ 06:00 to Apr-21 @ 13:00
FM210600 08006KT P6SM SCT250
Wind Visibility Clouds
80° at 6 knots Greater than 6 miles
  • Scattered at 25,000' AGL
From Apr-21 @ 13:00 to Apr-21 @ 17:00
FM211300 10011KT P6SM SCT030 SCT050
Wind Visibility Clouds
100° at 11 knots Greater than 6 miles
  • Scattered at 3,000' AGL
  • Scattered at 5,000' AGL
From Apr-21 @ 17:00 to Apr-22 @ 00:00
FM211700 09015G25KT P6SM VCSH SCT025 BKN050 BKN250
Wind Visibility Clouds
90° at 15 knots
 Gusting to 25 knots
Greater than 6 miles
  • Scattered at 2,500' AGL
  • Broken at 5,000' AGL
  • Broken at 25,000' AGL
KFXE 210310Z 2103/2124 09010KT P6SM SCT250 FM210600 08006KT P6SM SCT250 FM211300 10011KT P6SM SCT030 SCT050 FM211700 09015G25KT P6SM VCSH SCT025 BKN050 BKN250
Issued Apr-21 @ 03:10 UTC
(50 minutes ago)
Valid From Apr-21 @ 03:00 UTC
(60 minutes ago)
Valid To Apr-22 @ 00:00 UTC
(in 20 hours)
Apr-21 @ 03:00 - Apr-21 @ 06:00
Wind Visibility
90° at 10 knots Greater than 6 miles
Clouds
  • Scattered at 25,000' AGL
From Apr-21 @ 06:00 - Apr-21 @ 13:00
Wind Visibility
80° at 6 knots Greater than 6 miles
Clouds
  • Scattered at 25,000' AGL
From Apr-21 @ 13:00 - Apr-21 @ 17:00
Wind Visibility
100° at 11 knots Greater than 6 miles
Clouds
  • Scattered at 3,000' AGL
  • Scattered at 5,000' AGL
From Apr-21 @ 17:00 - Apr-22 @ 00:00
Wind Visibility
90° at 15 knots
 Gusting to 25 knots
Greater than 6 miles
Clouds
  • Scattered at 2,500' AGL
  • Broken at 5,000' AGL
  • Broken at 25,000' AGL